Time;durP1;ratioP1;P1;durP2;ratioP2;P2;SDS_P1;SDS_P2;PMS_P1;PMS_P2;Temp;Humidity;BMP_temperature;BMP_pressure;BME280_temperature;BME280_humidity;BME280_pressure;Samples;Min_cycle;Max_cycle;Signal;HPM_P1;HPM_P2
2022/02/14 00:01:54;;;;;;;5.55;2.85;;;;;;;4.07;56.58;98159.03;5011729;28;20067;-69
2022/02/14 00:04:20;;;;;;;6.15;2.42;;;;;;;4.20;56.91;98177.16;5011487;28;20025;-69
2022/02/14 00:06:46;;;;;;;8.27;3.40;;;;;;;4.20;56.73;98177.16;5014785;28;20029;-70
2022/02/14 00:09:11;;;;;;;7.22;3.20;;;;;;;4.11;57.12;98171.88;5012775;28;20026;-69
2022/02/14 00:11:36;;;;;;;4.68;2.53;;;;;;;4.19;56.81;98168.28;5009153;28;20049;-73
2022/02/14 00:14:02;;;;;;;9.00;3.80;;;;;;;4.11;56.93;98163.84;5010693;28;20053;-71
2022/02/14 00:16:27;;;;;;;7.22;4.35;;;;;;;4.02;57.06;98162.22;5013164;28;20050;-70
2022/02/14 00:18:52;;;;;;;6.07;2.88;;;;;;;3.83;56.83;98111.84;5012974;28;20060;-69
2022/02/14 00:21:18;;;;;;;6.47;3.00;;;;;;;4.03;56.50;98139.78;5012936;28;20040;-70
2022/02/14 00:23:43;;;;;;;4.00;2.45;;;;;;;4.06;55.95;98144.81;5012809;28;20152;-71
2022/02/14 00:26:08;;;;;;;8.65;2.90;;;;;;;4.20;56.04;98161.94;5011389;28;20022;-69
2022/02/14 00:28:33;;;;;;;6.70;2.50;;;;;;;4.02;56.55;98132.78;5012274;28;20026;-71
2022/02/14 00:30:59;;;;;;;6.45;2.10;;;;;;;4.14;57.12;98144.75;5011281;28;20041;-70
2022/02/14 00:33:24;;;;;;;5.22;2.78;;;;;;;4.18;56.74;98131.81;5014146;28;20027;-70
2022/02/14 00:35:50;;;;;;;5.60;2.63;;;;;;;4.25;56.91;98138.13;5012043;28;20029;-70
2022/02/14 00:38:15;;;;;;;5.15;2.58;;;;;;;4.14;56.06;98107.25;5010253;28;20065;-69
2022/02/14 00:40:41;;;;;;;6.63;2.70;;;;;;;4.30;56.61;98135.75;5011410;28;20029;-71
2022/02/14 00:43:06;;;;;;;9.35;2.80;;;;;;;4.32;55.80;98135.56;5010844;28;20085;-70
2022/02/14 00:45:32;;;;;;;5.30;2.45;;;;;;;4.28;56.45;98118.19;5008278;28;20022;-72
2022/02/14 00:47:58;;;;;;;5.57;2.75;;;;;;;4.56;55.37;98134.53;5011687;28;20101;-71
2022/02/14 00:50:24;;;;;;;4.90;2.60;;;;;;;4.57;54.85;98125.47;5013220;28;20123;-70
2022/02/14 00:52:49;;;;;;;5.03;1.95;;;;;;;4.74;54.33;98113.59;5013876;28;20060;-70
2022/02/14 00:55:16;;;;;;;6.18;2.60;;;;;;;4.88;53.54;98122.66;5010064;28;20049;-71
2022/02/14 00:57:42;;;;;;;6.22;2.00;;;;;;;5.01;53.22;98116.66;5011385;28;20049;-68
2022/02/14 01:00:10;;;;;;;6.45;2.38;;;;;;;4.86;53.08;98092.50;5020236;28;20403;-68
2022/02/14 01:02:36;;;;;;;10.57;2.03;;;;;;;5.10;52.63;98109.34;5015844;28;20052;-69
2022/02/14 01:05:03;;;;;;;4.13;2.30;;;;;;;5.14;51.81;98110.66;5031607;28;20021;-69
2022/02/14 01:07:28;;;;;;;5.75;2.15;;;;;;;5.18;52.12;98110.06;5022926;28;20084;-69
2022/02/14 01:09:54;;;;;;;5.05;2.22;;;;;;;5.28;51.18;98105.25;5011653;28;20029;-69
2022/02/14 01:12:20;;;;;;;6.30;2.88;;;;;;;5.30;51.51;98102.41;5010570;28;20030;-69
2022/02/14 01:14:46;;;;;;;4.40;2.30;;;;;;;5.10;51.89;98085.22;5011194;28;20041;-69
2022/02/14 01:17:11;;;;;;;5.28;2.20;;;;;;;5.13;51.71;98080.28;5008972;28;20500;-71
2022/02/14 01:19:37;;;;;;;6.18;2.10;;;;;;;5.31;51.54;98111.25;5022571;28;20108;-69
2022/02/14 01:22:03;;;;;;;4.75;2.45;;;;;;;5.25;50.94;98075.31;5017856;28;20068;-69
2022/02/14 01:24:28;;;;;;;9.90;2.60;;;;;;;5.33;50.61;98071.69;5011772;28;20064;-69
2022/02/14 01:26:53;;;;;;;3.53;1.67;;;;;;;5.53;50.05;98085.31;5013116;28;20040;-70
2022/02/14 01:29:19;;;;;;;6.30;2.38;;;;;;;5.53;50.65;98094.22;5014464;28;20087;-69
2022/02/14 01:31:44;;;;;;;3.88;2.15;;;;;;;5.40;50.47;98072.59;5016669;28;21628;-69
2022/02/14 01:34:09;;;;;;;3.33;2.20;;;;;;;5.48;50.27;98076.00;5015921;28;20075;-71
2022/02/14 01:36:35;;;;;;;3.30;2.00;;;;;;;5.52;50.05;98083.66;5016369;28;20034;-69
2022/02/14 01:39:00;;;;;;;3.25;1.80;;;;;;;5.45;50.02;98049.56;5014280;28;20041;-71
2022/02/14 01:41:26;;;;;;;7.85;2.00;;;;;;;5.41;50.09;98042.88;5016565;28;20163;-70
2022/02/14 01:43:51;;;;;;;4.43;1.90;;;;;;;5.57;49.88;98067.84;5013598;28;20148;-69
2022/02/14 01:46:16;;;;;;;3.85;1.80;;;;;;;5.41;50.77;98059.00;5016730;28;20037;-70
2022/02/14 01:48:41;;;;;;;4.70;2.13;;;;;;;5.57;50.59;98068.66;5016481;28;20029;-70
2022/02/14 01:51:08;;;;;;;4.25;1.90;;;;;;;5.39;50.80;98044.09;5016050;28;20056;-69
2022/02/14 01:53:33;;;;;;;5.50;2.30;;;;;;;5.34;50.54;98054.56;5011591;28;20538;-70
2022/02/14 01:55:59;;;;;;;5.93;2.22;;;;;;;5.51;50.63;98050.66;5013064;28;20136;-69
2022/02/14 01:58:25;;;;;;;7.05;2.30;;;;;;;5.49;49.90;98060.72;5016736;28;21161;-70
2022/02/14 02:00:51;;;;;;;4.20;2.08;;;;;;;5.22;51.16;98020.19;5013069;28;20037;-69
2022/02/14 02:03:16;;;;;;;3.13;1.85;;;;;;;5.51;50.80;98052.50;5020304;28;20034;-70
2022/02/14 02:05:45;;;;;;;6.85;1.83;;;;;;;5.50;50.52;98043.59;5014582;28;20033;-69
2022/02/14 02:08:13;;;;;;;4.93;2.40;;;;;;;5.44;50.71;98042.50;5013809;28;20261;-69
2022/02/14 02:10:38;;;;;;;3.58;1.90;;;;;;;5.35;50.85;98007.97;5018262;28;20068;-69
2022/02/14 02:13:04;;;;;;;3.20;1.83;;;;;;;5.52;50.19;98040.75;5014369;28;20076;-69
2022/02/14 02:15:31;;;;;;;4.30;2.40;;;;;;;5.45;50.26;98032.63;5023186;28;20040;-69
2022/02/14 02:17:57;;;;;;;5.38;1.70;;;;;;;5.24;50.60;98004.75;5014661;28;20044;-70
2022/02/14 02:20:22;;;;;;;4.60;1.83;;;;;;;5.36;50.87;98026.53;5013227;28;20034;-71
2022/02/14 02:22:50;;;;;;;4.75;2.08;;;;;;;5.27;51.40;98027.69;5015075;28;20033;-69
2022/02/14 02:25:16;;;;;;;4.40;2.40;;;;;;;5.21;50.87;98005.13;5018078;28;20025;-70
2022/02/14 02:27:42;;;;;;;3.53;1.77;;;;;;;5.34;51.08;98020.53;5010417;28;20034;-70
2022/02/14 02:30:11;;;;;;;3.33;1.77;;;;;;;5.13;51.01;97993.66;5014115;28;20080;-70
2022/02/14 02:32:37;;;;;;;3.40;1.75;;;;;;;5.27;50.73;98025.00;5013195;28;20559;-70
2022/02/14 02:35:04;;;;;;;3.95;1.80;;;;;;;5.03;51.12;97986.78;5016903;28;20116;-70
2022/02/14 02:37:30;;;;;;;6.03;1.95;;;;;;;5.15;51.97;98003.19;5012496;28;20043;-70
2022/02/14 02:39:56;;;;;;;4.25;1.80;;;;;;;5.15;50.88;98005.88;5013320;28;20462;-69
2022/02/14 02:42:25;;;;;;;5.45;2.22;;;;;;;5.10;50.24;98008.28;5012127;28;20052;-69
2022/02/14 02:44:52;;;;;;;4.27;1.70;;;;;;;5.14;50.82;98003.41;5007075;28;20490;-69
2022/02/14 02:47:19;;;;;;;5.10;1.80;;;;;;;4.98;51.27;97974.97;5008074;28;20116;-69
2022/02/14 02:49:45;;;;;;;5.93;1.90;;;;;;;5.02;50.92;97973.53;5032321;28;20471;-69
2022/02/14 02:52:12;;;;;;;5.60;2.10;;;;;;;5.10;51.04;97992.19;5012276;28;20041;-69
2022/02/14 02:54:38;;;;;;;4.25;2.13;;;;;;;5.05;51.00;97982.03;5014662;28;20048;-69
2022/02/14 02:57:04;;;;;;;3.60;1.55;;;;;;;5.21;50.76;97978.31;5018763;28;20463;-69
2022/02/14 02:59:33;;;;;;;4.90;1.77;;;;;;;5.28;50.10;97973.84;5021249;28;20049;-69
2022/02/14 03:01:59;;;;;;;6.07;1.75;;;;;;;5.31;49.28;97977.16;5017163;28;20033;-69
2022/02/14 03:04:24;;;;;;;4.13;1.88;;;;;;;5.30;49.47;97962.94;5018256;28;20037;-69
2022/02/14 03:06:49;;;;;;;2.60;1.48;;;;;;;5.33;48.91;97961.72;5016745;28;20025;-69
2022/02/14 03:09:15;;;;;;;3.63;1.80;;;;;;;5.28;48.73;97967.66;5016779;28;20097;-69
2022/02/14 03:11:42;;;;;;;4.68;1.88;;;;;;;5.35;48.69;97965.06;5014239;28;20310;-70
2022/02/14 03:14:08;;;;;;;3.08;1.50;;;;;;;5.38;48.16;97960.13;5016646;28;20062;-69
2022/02/14 03:16:34;;;;;;;3.60;1.30;;;;;;;5.41;47.64;97965.09;5012464;28;20516;-69
2022/02/14 03:18:59;;;;;;;6.18;1.40;;;;;;;5.29;48.05;97947.84;5013346;28;20442;-69
2022/02/14 03:21:25;;;;;;;4.47;1.80;;;;;;;5.38;47.95;97956.63;5012052;28;20022;-69
2022/02/14 03:23:52;;;;;;;5.50;1.75;;;;;;;5.36;48.32;97951.44;5012094;28;20029;-69
2022/02/14 03:26:19;;;;;;;6.22;2.13;;;;;;;5.31;47.82;97942.31;5016697;28;20030;-69
2022/02/14 03:28:45;;;;;;;2.65;1.58;;;;;;;5.27;47.63;97925.78;5012281;28;20041;-69
2022/02/14 03:31:12;;;;;;;4.38;1.77;;;;;;;5.33;48.00;97948.31;5029389;28;20033;-69
2022/02/14 03:33:38;;;;;;;5.22;2.10;;;;;;;5.35;48.09;97947.09;5012469;28;20041;-69
2022/02/14 03:36:04;;;;;;;3.33;1.48;;;;;;;5.37;47.65;97945.06;5012823;28;20022;-69
2022/02/14 03:38:30;;;;;;;3.58;1.20;;;;;;;5.43;46.14;97927.38;5012204;28;20026;-70
2022/02/14 03:40:55;;;;;;;4.63;1.35;;;;;;;5.57;45.52;97939.03;5015741;28;20044;-70
2022/02/14 03:43:20;;;;;;;4.15;1.77;;;;;;;5.63;45.17;97924.84;5014469;28;21911;-70
2022/02/14 03:45:46;;;;;;;2.10;1.33;;;;;;;5.67;45.48;97951.09;5016922;28;20025;-70
2022/02/14 03:48:11;;;;;;;2.88;1.10;;;;;;;5.66;45.63;97933.34;5016575;28;20148;-70
2022/02/14 03:50:37;;;;;;;6.43;1.35;;;;;;;5.69;44.76;97932.13;5022361;28;20076;-70
2022/02/14 03:53:02;;;;;;;3.15;1.63;;;;;;;5.59;44.75;97912.84;5016368;28;20026;-70
2022/02/14 03:55:28;;;;;;;5.75;1.48;;;;;;;5.79;45.29;97934.47;5016313;28;20434;-70
2022/02/14 03:57:53;;;;;;;4.85;1.80;;;;;;;5.86;45.15;97936.19;5019171;28;20060;-70
2022/02/14 04:00:21;;;;;;;3.55;1.80;;;;;;;5.86;44.41;97930.81;5017031;28;20053;-70
2022/02/14 04:02:47;;;;;;;4.55;1.50;;;;;;;5.69;44.83;97910.69;5018197;28;20023;-70
2022/02/14 04:05:14;;;;;;;3.50;1.58;;;;;;;5.51;45.98;97902.25;5022347;28;20064;-70
2022/02/14 04:07:40;;;;;;;3.63;1.70;;;;;;;5.52;45.24;97893.19;5014169;28;20076;-70
2022/02/14 04:10:07;;;;;;;4.45;1.50;;;;;;;5.69;45.44;97932.13;5013545;28;20029;-70
2022/02/14 04:12:32;;;;;;;4.88;1.50;;;;;;;5.74;45.01;97923.50;5014393;28;20106;-70
2022/02/14 04:14:57;;;;;;;2.58;1.48;;;;;;;5.73;44.96;97933.41;5013036;28;20112;-70
2022/02/14 04:17:24;;;;;;;3.78;1.58;;;;;;;5.54;45.69;97920.66;5017048;28;20569;-70
2022/02/14 04:19:49;;;;;;;6.57;1.40;;;;;;;5.60;46.08;97928.75;5014961;28;20049;-69
2022/02/14 04:22:14;;;;;;;3.05;1.38;;;;;;;5.39;46.14;97916.16;5019686;28;20059;-69
2022/02/14 04:24:40;;;;;;;2.90;1.17;;;;;;;5.43;46.10;97917.47;5018707;28;20040;-69
2022/02/14 04:27:05;;;;;;;3.90;1.30;;;;;;;5.43;45.81;97928.19;5011471;28;20037;-70
2022/02/14 04:29:30;;;;;;;3.47;1.50;;;;;;;5.30;46.31;97936.13;5011666;28;20446;-69
2022/02/14 04:31:56;;;;;;;3.25;1.55;;;;;;;5.08;46.88;97919.16;5016272;28;20211;-70
2022/02/14 04:34:21;;;;;;;3.13;1.50;;;;;;;5.18;47.11;97925.03;5008796;28;20057;-70
2022/02/14 04:36:48;;;;;;;6.35;1.63;;;;;;;5.03;47.47;97916.22;5011336;28;20052;-69
2022/02/14 04:39:14;;;;;;;3.72;1.40;;;;;;;5.05;47.61;97920.38;5013808;28;20045;-69
2022/02/14 04:41:40;;;;;;;5.07;1.30;;;;;;;5.10;46.87;97905.56;5011922;28;20034;-70
2022/02/14 04:44:06;;;;;;;3.72;1.65;;;;;;;4.87;47.34;97901.19;5009816;28;20113;-70
2022/02/14 04:46:31;;;;;;;3.50;1.58;;;;;;;4.82;47.68;97890.22;5011567;28;20498;-72
2022/02/14 04:48:57;;;;;;;2.20;1.30;;;;;;;4.72;47.26;97882.50;5010805;28;20064;-69
2022/02/14 04:51:24;;;;;;;3.35;1.50;;;;;;;4.97;47.17;97923.16;5010865;28;20119;-71
2022/02/14 04:53:49;;;;;;;3.28;1.42;;;;;;;4.90;47.83;97914.25;5011256;28;20060;-69
2022/02/14 04:56:15;;;;;;;3.95;1.30;;;;;;;4.85;46.89;97903.25;5009580;28;20065;-77
2022/02/14 04:58:40;;;;;;;8.45;1.65;;;;;;;4.70;47.66;97883.72;5011875;28;20032;-72
2022/02/14 05:01:05;;;;;;;3.75;1.63;;;;;;;4.92;47.68;97914.03;5016125;28;20029;-75
2022/02/14 05:03:31;;;;;;;4.80;1.40;;;;;;;4.63;47.59;97877.44;5018859;28;20217;-73
2022/02/14 05:05:56;;;;;;;4.75;1.35;;;;;;;4.89;48.51;97911.75;5011517;28;20024;-74
2022/02/14 05:08:21;;;;;;;8.32;1.90;;;;;;;4.65;48.13;97878.09;5027197;28;20033;-77
2022/02/14 05:10:47;;;;;;;11.20;2.72;;;;;;;4.65;48.70;97862.00;5025786;28;20022;-73
2022/02/14 05:13:12;;;;;;;19.80;6.22;;;;;;;4.74;48.07;97879.63;5020471;28;20454;-76
2022/02/14 05:15:37;;;;;;;12.85;5.13;;;;;;;4.65;48.70;97886.13;5034560;28;20053;-75
2022/02/14 05:18:03;;;;;;;9.75;3.72;;;;;;;4.68;48.52;97867.81;5035013;28;20494;-76
2022/02/14 05:20:28;;;;;;;7.82;3.03;;;;;;;4.87;48.15;97905.72;5034202;28;20021;-75
2022/02/14 05:22:53;;;;;;;4.78;2.92;;;;;;;4.91;47.49;97889.09;5017099;28;20063;-78
2022/02/14 05:25:19;;;;;;;5.30;2.17;;;;;;;4.87;47.53;97885.13;5031939;28;20041;-73
2022/02/14 05:27:44;;;;;;;3.47;1.70;;;;;;;4.96;47.48;97900.06;5027973;28;20033;-74
2022/02/14 05:30:10;;;;;;;3.92;2.00;;;;;;;4.95;47.97;97894.91;5034890;28;20041;-76
2022/02/14 05:32:35;;;;;;;4.95;1.70;;;;;;;4.95;47.58;97897.56;5032966;28;20029;-73
2022/02/14 05:35:01;;;;;;;5.68;2.03;;;;;;;4.96;47.30;97897.41;5028174;28;20033;-75
2022/02/14 05:37:26;;;;;;;4.60;2.25;;;;;;;4.87;47.91;97893.16;5021232;28;20392;-76
2022/02/14 05:39:52;;;;;;;10.23;1.90;;;;;;;4.52;48.48;97842.06;5026546;28;20101;-77
2022/02/14 05:42:17;;;;;;;5.10;1.88;;;;;;;4.50;49.19;97857.50;5033236;28;20022;-75
2022/02/14 05:44:43;;;;;;;4.57;2.17;;;;;;;4.29;48.51;97833.34;5051032;28;20483;-74
2022/02/14 05:47:09;;;;;;;4.57;2.03;;;;;;;4.23;48.97;97853.69;5026367;28;20410;-74
2022/02/14 05:49:35;;;;;;;7.30;2.65;;;;;;;4.54;49.25;97907.00;5036239;28;20044;-75
2022/02/14 05:52:00;;;;;;;6.50;2.10;;;;;;;3.65;49.43;97769.75;5033667;28;20055;-78
2022/02/14 05:54:25;;;;;;;8.93;2.42;;;;;;;3.95;49.61;97848.97;5047547;28;20037;-75
2022/02/14 05:56:51;;;;;;;6.20;2.15;;;;;;;4.21;48.98;97876.28;5031973;28;20151;-76
2022/02/14 05:59:16;;;;;;;6.07;2.10;;;;;;;4.41;48.49;97890.78;5027363;28;20026;-74
2022/02/14 06:01:42;;;;;;;3.67;1.55;;;;;;;4.39;48.58;97882.09;5034967;28;20017;-76
2022/02/14 06:04:08;;;;;;;4.50;1.75;;;;;;;4.58;48.43;97908.31;5033185;28;20032;-73
2022/02/14 06:06:33;;;;;;;2.65;1.58;;;;;;;4.63;47.67;97915.75;5039482;28;20018;-73
2022/02/14 06:08:59;;;;;;;5.78;1.55;;;;;;;4.59;46.82;97883.19;5017181;28;20044;-77
2022/02/14 06:11:24;;;;;;;3.78;2.17;;;;;;;4.77;46.15;97906.06;5028422;28;20029;-73
2022/02/14 06:13:50;;;;;;;4.00;1.60;;;;;;;4.64;46.17;97881.75;5033837;28;20506;-71
2022/02/14 06:16:15;;;;;;;2.58;1.35;;;;;;;4.95;45.78;97909.16;5032668;28;20067;-72
2022/02/14 06:18:40;;;;;;;4.38;1.90;;;;;;;4.99;45.54;97913.09;5022816;28;20026;-73
2022/02/14 06:21:06;;;;;;;2.78;1.33;;;;;;;5.08;45.43;97915.66;5018143;28;20498;-72
2022/02/14 06:23:31;;;;;;;6.35;1.75;;;;;;;5.10;44.66;97910.94;5027012;28;20395;-71
2022/02/14 06:25:57;;;;;;;7.05;2.40;;;;;;;5.17;44.97;97914.53;5016545;28;20018;-72
2022/02/14 06:28:22;;;;;;;5.00;2.20;;;;;;;5.05;44.84;97904.28;5028070;28;20044;-71
2022/02/14 06:30:47;;;;;;;7.18;2.13;;;;;;;5.11;44.67;97901.88;5033200;28;20038;-70
2022/02/14 06:33:14;;;;;;;6.28;2.03;;;;;;;5.25;44.45;97927.81;5032949;28;20029;-72
2022/02/14 06:35:40;;;;;;;3.80;1.80;;;;;;;5.09;44.24;97893.22;5028753;28;20048;-71
2022/02/14 06:38:05;;;;;;;6.00;1.63;;;;;;;5.23;44.10;97916.44;5023117;28;20498;-75
2022/02/14 06:40:31;;;;;;;2.97;1.25;;;;;;;5.32;44.62;97935.91;5027259;28;20033;-74
2022/02/14 06:42:56;;;;;;;6.85;1.85;;;;;;;5.37;43.82;97941.53;5014406;28;20018;-78
2022/02/14 06:45:21;;;;;;;4.93;1.80;;;;;;;5.33;44.17;97925.00;5019623;28;20026;-76
2022/02/14 06:47:47;;;;;;;5.93;1.60;;;;;;;5.30;44.34;97913.84;5014412;28;20026;-72
2022/02/14 06:50:13;;;;;;;2.42;1.52;;;;;;;5.35;44.40;97935.53;5045135;28;20467;-82
2022/02/14 06:52:39;;;;;;;2.55;1.50;;;;;;;5.38;44.04;97941.34;5036465;28;20056;-72
2022/02/14 06:55:06;;;;;;;4.80;1.60;;;;;;;5.36;44.03;97934.50;5028707;28;20039;-72
2022/02/14 06:57:32;;;;;;;3.35;1.60;;;;;;;5.20;44.21;97919.50;5013823;28;20415;-73
2022/02/14 07:00:00;;;;;;;4.05;1.38;;;;;;;5.21;44.36;97926.50;5034030;28;20021;-74
2022/02/14 07:02:26;;;;;;;4.80;1.73;;;;;;;5.26;44.11;97937.50;5022588;28;20018;-78
2022/02/14 07:04:51;;;;;;;3.97;1.85;;;;;;;5.30;44.10;97940.66;5015391;28;20454;-72
2022/02/14 07:07:19;;;;;;;3.60;1.75;;;;;;;5.17;44.27;97922.56;5031856;28;20033;-75
2022/02/14 07:09:48;;;;;;;6.00;2.05;;;;;;;5.37;44.12;97941.53;5031880;28;20036;-78
2022/02/14 07:12:13;;;;;;;;;;;;;;;5.05;44.04;97882.84;5028826;28;20029;-76
2022/02/14 07:14:39;;;;;;;5.00;2.33;;;;;;;5.35;44.30;97924.81;5032888;28;19916;-72
2022/02/14 07:17:04;;;;;;;7.45;2.92;;;;;;;5.56;42.81;97940.06;5017045;28;20423;-71
2022/02/14 07:19:29;;;;;;;5.63;2.55;;;;;;;5.68;43.45;97941.19;5021255;28;20037;-82
2022/02/14 07:21:55;;;;;;;5.68;2.20;;;;;;;5.78;43.17;97914.03;5020089;28;20029;-80
2022/02/14 07:24:20;;;;;;;7.82;1.65;;;;;;;6.09;41.99;97925.25;5032104;28;20449;-77
2022/02/14 07:26:45;;;;;;;4.50;2.13;;;;;;;6.25;41.16;97913.34;5020697;28;20037;-77
2022/02/14 07:29:11;;;;;;;4.10;2.00;;;;;;;6.41;41.39;97900.63;5031604;28;20025;-75
2022/02/14 07:31:36;;;;;;;5.32;2.08;;;;;;;7.03;40.30;97918.47;5030026;28;20029;-74
2022/02/14 07:34:02;;;;;;;8.77;2.08;;;;;;;8.87;37.68;97908.81;5032684;28;20033;-76
2022/02/14 07:36:27;;;;;;;5.13;1.67;;;;;;;8.63;37.27;97930.06;5022422;28;20368;-74
2022/02/14 07:38:53;;;;;;;6.95;2.65;;;;;;;9.45;36.50;97916.78;5031469;28;20025;-74
2022/02/14 07:41:19;;;;;;;5.43;1.80;;;;;;;9.12;36.01;97911.63;5013376;28;20037;-75
2022/02/14 07:43:44;;;;;;;5.50;1.90;;;;;;;8.69;36.94;97906.81;5022878;28;20030;-71
2022/02/14 07:46:10;;;;;;;3.60;1.50;;;;;;;8.46;37.42;97908.16;5024704;28;20049;-66
2022/02/14 07:48:35;;;;;;;4.80;1.88;;;;;;;8.49;37.77;97926.59;5022832;28;20112;-74
2022/02/14 07:51:01;;;;;;;3.53;1.70;;;;;;;8.86;37.44;97939.56;5028148;28;20063;-73
2022/02/14 07:53:27;;;;;;;6.93;1.65;;;;;;;8.13;37.66;97873.16;5016796;28;20025;-73
2022/02/14 07:55:52;;;;;;;6.82;1.48;;;;;;;7.89;38.71;97918.56;5026657;28;20026;-75
2022/02/14 07:58:17;;;;;;;4.15;1.67;;;;;;;7.69;39.72;97933.88;5028404;28;20048;-70
2022/02/14 08:00:43;;;;;;;8.18;1.67;;;;;;;7.87;39.34;97917.13;5014806;28;20032;-70
2022/02/14 08:03:08;;;;;;;3.95;1.85;;;;;;;10.05;35.90;97922.56;5015415;28;20018;-67
2022/02/14 08:05:33;;;;;;;5.22;1.55;;;;;;;11.45;33.19;97920.97;5021476;28;20499;-67
2022/02/14 08:07:59;;;;;;;4.82;1.80;;;;;;;10.72;33.91;97922.75;5023512;28;20021;-67
2022/02/14 08:10:24;;;;;;;3.60;2.00;;;;;;;10.09;34.88;97926.50;5020324;28;20542;-67
2022/02/14 08:12:49;;;;;;;4.15;1.83;;;;;;;9.44;36.12;97915.97;5020237;28;20022;-68
2022/02/14 08:15:15;;;;;;;3.92;1.90;;;;;;;9.39;36.13;97887.97;5026920;28;20041;-68
2022/02/14 08:17:40;;;;;;;3.28;1.75;;;;;;;9.80;35.82;97913.66;5017002;28;20025;-69
2022/02/14 08:20:06;;;;;;;6.15;1.50;;;;;;;12.57;31.98;97890.31;5023782;28;20049;-73
2022/02/14 08:22:32;;;;;;;2.90;1.70;;;;;;;14.28;29.32;97895.88;5033792;28;20025;-77
2022/02/14 08:24:57;;;;;;;4.50;1.75;;;;;;;15.59;27.74;97883.31;5033784;28;20479;-78
2022/02/14 08:27:24;;;;;;;6.88;2.00;;;;;;;16.11;26.76;97877.25;5012939;28;20376;-74
2022/02/14 08:29:50;;;;;;;6.47;2.03;;;;;;;16.26;26.36;97891.00;5017598;28;20030;-75
2022/02/14 08:32:16;;;;;;;2.70;1.45;;;;;;;16.92;25.62;97892.47;5018249;28;20372;-72
2022/02/14 08:34:42;;;;;;;6.10;1.77;;;;;;;16.78;25.85;97903.91;5024975;28;20025;-67
2022/02/14 08:37:08;;;;;;;5.50;1.77;;;;;;;17.33;25.11;97882.50;5035300;28;20475;-67
2022/02/14 08:39:33;;;;;;;4.95;2.10;;;;;;;17.37;25.18;97893.72;5034342;28;20998;-65
2022/02/14 08:41:59;;;;;;;5.68;2.38;;;;;;;16.88;25.12;97894.94;5023417;28;20538;-66
2022/02/14 08:44:24;;;;;;;5.55;2.08;;;;;;;17.41;24.88;97883.91;5018164;28;20025;-69
2022/02/14 08:46:50;;;;;;;5.15;2.25;;;;;;;18.38;23.82;97865.59;5016801;28;20096;-70
2022/02/14 08:49:15;;;;;;;7.60;1.90;;;;;;;18.61;23.43;97863.34;5018195;28;20022;-76
2022/02/14 08:51:40;;;;;;;4.22;1.88;;;;;;;18.28;23.92;97853.84;5016051;28;20395;-70
2022/02/14 08:54:06;;;;;;;4.65;1.70;;;;;;;18.67;22.86;97877.84;5025881;28;20025;-72
2022/02/14 08:56:32;;;;;;;9.45;2.10;;;;;;;18.10;23.75;97869.75;5034456;28;20033;-72
2022/02/14 08:58:57;;;;;;;4.78;2.20;;;;;;;18.91;23.19;97870.66;5030890;28;20022;-71
2022/02/14 09:01:22;;;;;;;3.38;1.80;;;;;;;19.09;23.29;97862.91;5030946;28;20029;-72
2022/02/14 09:03:48;;;;;;;4.95;1.98;;;;;;;18.80;23.44;97880.03;5029034;28;20498;-69
2022/02/14 09:06:13;;;;;;;5.22;2.08;;;;;;;18.95;23.09;97844.34;5019428;28;20034;-69
2022/02/14 09:08:39;;;;;;;5.80;2.10;;;;;;;18.99;22.78;97867.38;5024309;28;20037;-68
2022/02/14 09:11:04;;;;;;;7.32;1.95;;;;;;;17.69;24.38;97861.50;5030387;28;20036;-72
2022/02/14 09:13:32;;;;;;;6.07;1.63;;;;;;;16.46;26.22;97867.66;5041970;28;20475;-72
2022/02/14 09:16:04;;;;;;;7.03;2.30;;;;;;;16.51;26.31;97868.50;5040177;28;20101;-73
2022/02/14 09:18:33;;;;;;;5.85;2.05;;;;;;;13.87;29.01;97865.34;5033237;28;20067;-74
2022/02/14 09:20:59;;;;;;;7.80;1.85;;;;;;;13.46;30.34;97876.34;5014897;28;20399;-72
2022/02/14 09:23:26;;;;;;;7.53;2.47;;;;;;;13.40;30.63;97852.06;5028069;28;20108;-72
2022/02/14 09:25:51;;;;;;;7.55;2.20;;;;;;;13.41;30.82;97854.50;5030443;28;20029;-73
2022/02/14 09:28:16;;;;;;;5.65;2.33;;;;;;;13.94;30.54;97861.38;5037863;28;20020;-72
2022/02/14 09:30:42;;;;;;;5.03;2.17;;;;;;;13.73;30.80;97853.97;5048304;28;20056;-70
2022/02/14 09:33:07;;;;;;;9.15;2.50;;;;;;;13.28;31.92;97863.81;5035981;28;20404;-72
2022/02/14 09:35:32;;;;;;;3.47;1.77;;;;;;;13.62;31.38;97839.38;5027466;28;20087;-70
2022/02/14 09:37:59;;;;;;;4.80;2.45;;;;;;;13.81;31.68;97848.94;5038177;28;20041;-70
2022/02/14 09:40:27;;;;;;;4.80;1.70;;;;;;;13.06;32.74;97854.66;5031466;28;20064;-70
2022/02/14 09:42:54;;;;;;;8.23;2.28;;;;;;;12.09;34.72;97853.47;5021852;28;20041;-70
2022/02/14 09:45:22;;;;;;;8.10;1.90;;;;;;;11.37;36.11;97830.06;5025422;28;20030;-69
2022/02/14 09:48:00;;;;;;;5.15;2.10;;;;;;;11.18;36.57;97845.53;5031475;28;20032;-68
2022/02/14 09:50:27;;;;;;;8.98;2.15;;;;;;;10.82;37.42;97845.63;5028135;28;20029;-68
2022/02/14 09:52:52;;;;;;;5.43;2.60;;;;;;;10.86;38.57;97855.75;5028213;28;20109;-68
2022/02/14 09:55:19;;;;;;;5.35;2.25;;;;;;;10.97;38.39;97844.16;5027780;28;20061;-69
2022/02/14 09:57:45;;;;;;;7.70;1.90;;;;;;;10.88;38.42;97842.84;5032312;28;20022;-68
2022/02/14 10:00:10;;;;;;;10.10;2.05;;;;;;;10.49;39.59;97823.34;5029236;28;20163;-72
2022/02/14 10:02:36;;;;;;;6.38;2.10;;;;;;;10.71;39.52;97850.75;5044018;28;20028;-69
2022/02/14 10:05:03;;;;;;;7.13;2.13;;;;;;;10.84;39.35;97851.63;5027411;28;20501;-73
2022/02/14 10:07:46;;;;;;;9.10;2.00;;;;;;;10.70;39.09;97832.88;5024223;28;20029;-73
2022/02/14 10:10:25;;;;;;;10.20;2.10;;;;;;;10.69;39.48;97841.22;5023091;28;20503;-70
2022/02/14 10:12:58;;;;;;;13.25;2.28;;;;;;;10.72;40.45;97857.00;5023514;28;20053;-68
2022/02/14 10:15:25;;;;;;;6.90;1.90;;;;;;;10.97;39.64;97859.56;5016999;28;20041;-66
2022/02/14 10:17:53;;;;;;;5.07;1.95;;;;;;;10.90;40.18;97848.03;5025334;28;20025;-73
2022/02/14 10:20:21;;;;;;;6.95;1.80;;;;;;;10.93;39.93;97853.81;5021586;28;20022;-69
2022/02/14 10:23:05;;;;;;;6.80;2.17;;;;;;;10.87;40.80;97854.72;5028870;28;20025;-70
2022/02/14 10:25:44;;;;;;;8.25;1.83;;;;;;;10.93;40.33;97851.09;5018340;28;20295;-65
2022/02/14 10:28:19;;;;;;;6.32;1.80;;;;;;;10.71;40.42;97842.63;5051136;28;20018;-78
2022/02/14 10:31:03;;;;;;;7.10;1.65;;;;;;;10.90;40.61;97848.03;5032918;28;20079;-76
2022/02/14 10:33:50;;;;;;;5.03;1.50;;;;;;;11.00;40.97;97852.88;5015295;28;20029;-76
2022/02/14 10:36:29;;;;;;;9.25;2.05;;;;;;;10.79;40.85;97805.50;5033661;28;20057;-79
2022/02/14 10:38:55;;;;;;;;;;;;;;;11.14;40.91;97855.19;5018095;28;20044;-79
2022/02/14 10:41:20;;;;;;;5.88;1.70;;;;;;;11.33;41.25;97836.16;5034030;28;19946;-76
2022/02/14 10:43:46;;;;;;;6.32;1.73;;;;;;;11.61;40.60;97843.63;5030041;28;20039;-69
2022/02/14 10:46:22;;;;;;;5.07;1.77;;;;;;;12.20;39.35;97840.97;5027022;28;20076;-72
2022/02/14 10:48:53;;;;;;;8.07;1.80;;;;;;;12.64;38.39;97836.75;5028792;28;20025;-73
2022/02/14 10:51:19;;;;;;;5.70;3.20;;;;;;;12.73;38.34;97820.91;5032024;28;20025;-77
2022/02/14 10:53:46;;;;;;;6.85;2.55;;;;;;;13.02;37.76;97799.19;5022338;28;20400;-76
2022/02/14 10:56:18;;;;;;;8.68;1.92;;;;;;;12.93;37.53;97786.00;5030669;28;20220;-79
2022/02/14 10:58:45;;;;;;;7.47;2.33;;;;;;;13.24;37.69;97827.31;5030738;28;20399;-74
2022/02/14 11:01:11;;;;;;;5.50;1.95;;;;;;;13.21;37.69;97794.38;5025912;28;20036;-70
2022/02/14 11:03:44;;;;;;;10.88;1.98;;;;;;;13.37;37.79;97785.44;5027661;28;20013;-75
2022/02/14 11:06:11;;;;;;;3.65;1.55;;;;;;;13.54;37.61;97804.47;5044464;28;20037;-77
2022/02/14 11:08:38;;;;;;;5.13;1.40;;;;;;;13.85;37.50;97796.78;5033025;28;20033;-68
2022/02/14 11:11:05;;;;;;;6.88;1.70;;;;;;;13.83;37.66;97788.88;5023944;28;20068;-68
2022/02/14 11:13:32;;;;;;;5.38;2.05;;;;;;;14.02;38.12;97811.19;5015170;28;20018;-70
2022/02/14 11:15:59;;;;;;;7.75;1.70;;;;;;;14.35;37.68;97784.97;5012605;28;20030;-70
2022/02/14 11:18:31;;;;;;;4.05;1.50;;;;;;;14.48;37.46;97801.72;5017011;28;20537;-70
2022/02/14 11:20:57;;;;;;;5.15;1.90;;;;;;;14.64;37.41;97777.44;5032902;28;20021;-70
2022/02/14 11:23:23;;;;;;;6.40;1.75;;;;;;;14.97;37.22;97765.56;5026968;28;20024;-70
2022/02/14 11:25:49;;;;;;;8.45;1.80;;;;;;;14.83;37.55;97786.94;5020962;28;20040;-72
2022/02/14 11:28:35;;;;;;;7.32;2.00;;;;;;;15.95;35.93;97778.91;5012931;28;20398;-72
2022/02/14 11:31:17;;;;;;;6.47;1.88;;;;;;;17.85;33.09;97771.25;5029645;28;20021;-72
2022/02/14 11:34:04;;;;;;;7.80;2.03;;;;;;;18.03;32.82;97764.41;5012789;28;20034;-72
2022/02/14 11:36:31;;;;;;;8.63;1.77;;;;;;;15.60;36.21;97784.09;5024344;28;20030;-71